Terminal Aerodrome Forecast
Issued by NWS Jackson, MS

Home | Current Version | Previous Version | Text Only | Print | Product List | Glossary On
Versions: 1 2 3 4 5 6 7 8 9 10 11 12 13 14 15 16 17 18 19 20
000
FTUS44 KJAN 262340
TAFHBG
TAF
KHBG 262340Z 2700/2724 18004KT P6SM SCT040
     FM270100 20004KT P6SM SCT250
     FM270800 VRB03KT 3SM BR SCT010
     FM271000 VRB03KT 1SM BR BKN007
     FM271500 20006KT P6SM VCSH SCT035
     FM271800 17006KT P6SM VCTS BKN050CB=

USA.gov is the U.S. government's official web portal to all federal, state and local government web resources and services.